sensor_id;sensor_type;location;lat;lon;timestamp;temperature;humidity
318;DHT22;146;53.448;10.228;2024-01-27T00:01:34;5.70;1.00
318;DHT22;146;53.448;10.228;2024-01-27T00:04:27;5.60;1.00
318;DHT22;146;53.448;10.228;2024-01-27T00:07:17;5.60;1.00
318;DHT22;146;53.448;10.228;2024-01-27T00:10:08;5.50;1.00
318;DHT22;146;53.448;10.228;2024-01-27T00:12:58;5.60;1.00
318;DHT22;146;53.448;10.228;2024-01-27T00:15:45;5.50;1.00
318;DHT22;146;53.448;10.228;2024-01-27T00:18:35;5.60;1.00
318;DHT22;146;53.448;10.228;2024-01-27T00:21:22;5.60;1.00
318;DHT22;146;53.448;10.228;2024-01-27T00:24:10;5.50;1.00
318;DHT22;146;53.448;10.228;2024-01-27T00:26:57;5.50;1.00
318;DHT22;146;53.448;10.228;2024-01-27T00:29:47;5.50;1.00
318;DHT22;146;53.448;10.228;2024-01-27T00:32:39;5.50;1.00
318;DHT22;146;53.448;10.228;2024-01-27T00:35:28;5.60;1.00
318;DHT22;146;53.448;10.228;2024-01-27T00:38:24;5.60;1.00
318;DHT22;146;53.448;10.228;2024-01-27T00:41:25;5.50;1.00
318;DHT22;146;53.448;10.228;2024-01-27T00:44:15;5.50;1.00
318;DHT22;146;53.448;10.228;2024-01-27T00:47:11;5.50;1.00
318;DHT22;146;53.448;10.228;2024-01-27T00:50:03;5.50;1.00
318;DHT22;146;53.448;10.228;2024-01-27T00:52:55;5.60;1.00
318;DHT22;146;53.448;10.228;2024-01-27T00:55:42;5.60;1.00
318;DHT22;146;53.448;10.228;2024-01-27T00:58:30;5.60;1.00
318;DHT22;146;53.448;10.228;2024-01-27T01:01:17;5.70;1.00
318;DHT22;146;53.448;10.228;2024-01-27T01:04:07;5.70;1.00
318;DHT22;146;53.448;10.228;2024-01-27T01:06:55;5.80;1.00
318;DHT22;146;53.448;10.228;2024-01-27T01:09:47;5.80;1.00
318;DHT22;146;53.448;10.228;2024-01-27T01:12:36;5.80;1.00
318;DHT22;146;53.448;10.228;2024-01-27T01:15:27;5.90;1.00
318;DHT22;146;53.448;10.228;2024-01-27T01:18:17;5.90;1.00
318;DHT22;146;53.448;10.228;2024-01-27T01:21:07;6.00;1.00
318;DHT22;146;53.448;10.228;2024-01-27T01:24:00;6.00;1.00
318;DHT22;146;53.448;10.228;2024-01-27T01:26:48;6.10;1.00
318;DHT22;146;53.448;10.228;2024-01-27T01:29:36;6.10;1.00
318;DHT22;146;53.448;10.228;2024-01-27T01:32:23;6.10;1.00
318;DHT22;146;53.448;10.228;2024-01-27T01:35:21;6.20;1.00
318;DHT22;146;53.448;10.228;2024-01-27T01:38:08;6.10;1.00
318;DHT22;146;53.448;10.228;2024-01-27T01:40:55;6.10;1.00
318;DHT22;146;53.448;10.228;2024-01-27T01:43:44;6.10;1.00
318;DHT22;146;53.448;10.228;2024-01-27T01:46:31;6.10;1.00
318;DHT22;146;53.448;10.228;2024-01-27T01:49:21;6.10;1.00
318;DHT22;146;53.448;10.228;2024-01-27T01:52:09;6.10;1.00
318;DHT22;146;53.448;10.228;2024-01-27T01:55:00;6.10;1.00
318;DHT22;146;53.448;10.228;2024-01-27T01:57:48;6.10;1.00
318;DHT22;146;53.448;10.228;2024-01-27T02:00:39;6.10;1.00
318;DHT22;146;53.448;10.228;2024-01-27T02:03:27;6.10;1.00
318;DHT22;146;53.448;10.228;2024-01-27T02:06:14;6.10;1.00
318;DHT22;146;53.448;10.228;2024-01-27T02:09:04;6.20;1.00
318;DHT22;146;53.448;10.228;2024-01-27T02:11:52;6.20;1.00
318;DHT22;146;53.448;10.228;2024-01-27T02:14:39;6.20;1.00
318;DHT22;146;53.448;10.228;2024-01-27T02:17:35;6.20;1.00
318;DHT22;146;53.448;10.228;2024-01-27T02:20:22;6.20;1.00
318;DHT22;146;53.448;10.228;2024-01-27T02:23:12;6.20;1.00
318;DHT22;146;53.448;10.228;2024-01-27T02:26:03;6.20;1.00
318;DHT22;146;53.448;10.228;2024-01-27T02:28:53;6.10;1.00
318;DHT22;146;53.448;10.228;2024-01-27T02:31:40;6.00;1.00
318;DHT22;146;53.448;10.228;2024-01-27T02:34:30;6.00;1.00
318;DHT22;146;53.448;10.228;2024-01-27T02:37:20;6.00;1.00
318;DHT22;146;53.448;10.228;2024-01-27T02:40:10;5.90;1.00
318;DHT22;146;53.448;10.228;2024-01-27T02:43:02;5.90;1.00
318;DHT22;146;53.448;10.228;2024-01-27T02:45:55;5.90;1.00
318;DHT22;146;53.448;10.228;2024-01-27T02:48:45;5.90;1.00
318;DHT22;146;53.448;10.228;2024-01-27T02:51:39;5.90;1.00
318;DHT22;146;53.448;10.228;2024-01-27T02:54:26;5.90;1.00
318;DHT22;146;53.448;10.228;2024-01-27T02:57:19;6.00;1.00
318;DHT22;146;53.448;10.228;2024-01-27T03:00:18;6.00;1.00
318;DHT22;146;53.448;10.228;2024-01-27T03:03:05;6.00;1.00
318;DHT22;146;53.448;10.228;2024-01-27T03:05:52;6.10;1.00
318;DHT22;146;53.448;10.228;2024-01-27T03:08:40;6.10;1.00
318;DHT22;146;53.448;10.228;2024-01-27T03:11:32;6.10;1.00
318;DHT22;146;53.448;10.228;2024-01-27T03:14:23;6.10;1.00
318;DHT22;146;53.448;10.228;2024-01-27T03:17:11;6.10;1.00
318;DHT22;146;53.448;10.228;2024-01-27T03:19:58;6.20;1.00
318;DHT22;146;53.448;10.228;2024-01-27T03:22:58;6.10;1.00
318;DHT22;146;53.448;10.228;2024-01-27T03:25:49;6.10;1.00
318;DHT22;146;53.448;10.228;2024-01-27T03:28:36;6.10;1.00
318;DHT22;146;53.448;10.228;2024-01-27T03:31:29;6.10;1.00
318;DHT22;146;53.448;10.228;2024-01-27T03:34:21;6.10;1.00
318;DHT22;146;53.448;10.228;2024-01-27T03:37:24;6.10;1.00
318;DHT22;146;53.448;10.228;2024-01-27T03:40:12;6.10;1.00
318;DHT22;146;53.448;10.228;2024-01-27T03:43:28;6.10;1.00
318;DHT22;146;53.448;10.228;2024-01-27T03:46:22;6.10;1.00
318;DHT22;146;53.448;10.228;2024-01-27T03:49:21;6.10;1.00
318;DHT22;146;53.448;10.228;2024-01-27T03:52:08;6.10;1.00
318;DHT22;146;53.448;10.228;2024-01-27T03:54:55;6.20;1.00
318;DHT22;146;53.448;10.228;2024-01-27T03:57:45;6.00;1.00
318;DHT22;146;53.448;10.228;2024-01-27T04:00:32;6.10;1.00
318;DHT22;146;53.448;10.228;2024-01-27T04:03:26;6.10;1.00
318;DHT22;146;53.448;10.228;2024-01-27T04:06:17;6.10;1.00
318;DHT22;146;53.448;10.228;2024-01-27T04:09:14;6.00;1.00
318;DHT22;146;53.448;10.228;2024-01-27T04:12:07;6.00;1.00
318;DHT22;146;53.448;10.228;2024-01-27T04:15:01;6.00;1.00
318;DHT22;146;53.448;10.228;2024-01-27T04:17:51;6.00;1.00
318;DHT22;146;53.448;10.228;2024-01-27T04:20:38;6.00;1.00
318;DHT22;146;53.448;10.228;2024-01-27T04:23:27;5.90;1.00
318;DHT22;146;53.448;10.228;2024-01-27T04:26:17;6.00;1.00
318;DHT22;146;53.448;10.228;2024-01-27T04:29:04;5.90;1.00
318;DHT22;146;53.448;10.228;2024-01-27T04:31:51;5.90;1.00
318;DHT22;146;53.448;10.228;2024-01-27T04:34:38;5.90;1.00
318;DHT22;146;53.448;10.228;2024-01-27T04:37:26;5.80;1.00
318;DHT22;146;53.448;10.228;2024-01-27T04:40:26;5.80;1.00
318;DHT22;146;53.448;10.228;2024-01-27T04:43:22;5.90;1.00
318;DHT22;146;53.448;10.228;2024-01-27T04:46:09;6.00;1.00
318;DHT22;146;53.448;10.228;2024-01-27T04:48:59;5.90;1.00
318;DHT22;146;53.448;10.228;2024-01-27T04:51:50;5.90;1.00
318;DHT22;146;53.448;10.228;2024-01-27T04:54:37;5.80;1.00
318;DHT22;146;53.448;10.228;2024-01-27T04:57:25;5.90;1.00
318;DHT22;146;53.448;10.228;2024-01-27T05:00:14;5.80;1.00
318;DHT22;146;53.448;10.228;2024-01-27T05:03:01;5.80;1.00
318;DHT22;146;53.448;10.228;2024-01-27T05:05:53;5.80;1.00
318;DHT22;146;53.448;10.228;2024-01-27T05:08:40;5.70;1.00
318;DHT22;146;53.448;10.228;2024-01-27T05:11:30;5.70;1.00
318;DHT22;146;53.448;10.228;2024-01-27T05:14:19;5.60;1.00
318;DHT22;146;53.448;10.228;2024-01-27T05:17:07;5.60;1.00
318;DHT22;146;53.448;10.228;2024-01-27T05:19:59;5.60;1.00
318;DHT22;146;53.448;10.228;2024-01-27T05:22:49;5.60;1.00
318;DHT22;146;53.448;10.228;2024-01-27T05:25:39;5.50;1.00
318;DHT22;146;53.448;10.228;2024-01-27T05:28:27;5.50;1.00
318;DHT22;146;53.448;10.228;2024-01-27T05:31:21;5.50;1.00
318;DHT22;146;53.448;10.228;2024-01-27T05:34:08;5.50;1.00
318;DHT22;146;53.448;10.228;2024-01-27T05:37:06;5.40;1.00
318;DHT22;146;53.448;10.228;2024-01-27T05:39:53;5.30;1.00
318;DHT22;146;53.448;10.228;2024-01-27T05:42:43;5.20;1.00
318;DHT22;146;53.448;10.228;2024-01-27T05:45:31;5.20;1.00
318;DHT22;146;53.448;10.228;2024-01-27T05:48:32;5.10;1.00
318;DHT22;146;53.448;10.228;2024-01-27T05:51:29;5.00;1.00
318;DHT22;146;53.448;10.228;2024-01-27T05:54:16;4.90;1.00
318;DHT22;146;53.448;10.228;2024-01-27T05:57:08;5.00;1.00
318;DHT22;146;53.448;10.228;2024-01-27T05:59:55;4.90;1.00
318;DHT22;146;53.448;10.228;2024-01-27T06:02:48;4.80;1.00
318;DHT22;146;53.448;10.228;2024-01-27T06:05:40;4.70;1.00
318;DHT22;146;53.448;10.228;2024-01-27T06:08:28;4.70;1.00
318;DHT22;146;53.448;10.228;2024-01-27T06:11:24;4.60;1.00
318;DHT22;146;53.448;10.228;2024-01-27T06:14:16;4.60;1.00
318;DHT22;146;53.448;10.228;2024-01-27T06:17:22;4.60;1.00
318;DHT22;146;53.448;10.228;2024-01-27T06:20:10;4.70;1.00
318;DHT22;146;53.448;10.228;2024-01-27T06:22:59;4.60;1.00
318;DHT22;146;53.448;10.228;2024-01-27T06:25:49;4.60;1.00
318;DHT22;146;53.448;10.228;2024-01-27T06:28:36;4.60;1.00
318;DHT22;146;53.448;10.228;2024-01-27T06:31:27;4.60;1.00
318;DHT22;146;53.448;10.228;2024-01-27T06:34:15;4.60;1.00
318;DHT22;146;53.448;10.228;2024-01-27T06:37:02;4.60;1.00
318;DHT22;146;53.448;10.228;2024-01-27T06:39:57;4.60;1.00
318;DHT22;146;53.448;10.228;2024-01-27T06:42:50;4.70;1.00
318;DHT22;146;53.448;10.228;2024-01-27T06:45:38;4.70;1.00
318;DHT22;146;53.448;10.228;2024-01-27T06:48:28;4.70;1.00
318;DHT22;146;53.448;10.228;2024-01-27T06:51:22;4.60;1.00
318;DHT22;146;53.448;10.228;2024-01-27T06:54:28;4.60;1.00
318;DHT22;146;53.448;10.228;2024-01-27T06:57:22;4.70;1.00
318;DHT22;146;53.448;10.228;2024-01-27T07:00:10;4.80;1.00
318;DHT22;146;53.448;10.228;2024-01-27T07:03:00;4.90;1.00
318;DHT22;146;53.448;10.228;2024-01-27T07:05:48;5.00;1.00
318;DHT22;146;53.448;10.228;2024-01-27T07:08:44;5.00;1.00
318;DHT22;146;53.448;10.228;2024-01-27T07:11:37;5.00;1.00
318;DHT22;146;53.448;10.228;2024-01-27T07:14:26;5.10;1.00
318;DHT22;146;53.448;10.228;2024-01-27T07:17:16;5.00;1.00
318;DHT22;146;53.448;10.228;2024-01-27T07:20:03;5.00;1.00
318;DHT22;146;53.448;10.228;2024-01-27T07:22:53;5.00;1.00
318;DHT22;146;53.448;10.228;2024-01-27T07:25:40;4.90;1.00
318;DHT22;146;53.448;10.228;2024-01-27T07:28:27;4.80;1.00
318;DHT22;146;53.448;10.228;2024-01-27T07:31:16;4.80;1.00
318;DHT22;146;53.448;10.228;2024-01-27T07:34:03;4.80;1.00
318;DHT22;146;53.448;10.228;2024-01-27T07:36:57;4.80;1.00
318;DHT22;146;53.448;10.228;2024-01-27T07:39:52;4.80;1.00
318;DHT22;146;53.448;10.228;2024-01-27T07:42:39;4.70;1.00
318;DHT22;146;53.448;10.228;2024-01-27T07:45:30;4.70;1.00
318;DHT22;146;53.448;10.228;2024-01-27T07:48:18;4.80;1.00
318;DHT22;146;53.448;10.228;2024-01-27T07:51:06;4.80;1.00
318;DHT22;146;53.448;10.228;2024-01-27T07:53:53;4.80;1.00
318;DHT22;146;53.448;10.228;2024-01-27T07:56:41;4.80;1.00
318;DHT22;146;53.448;10.228;2024-01-27T07:59:30;4.80;1.00
318;DHT22;146;53.448;10.228;2024-01-27T08:02:20;4.70;1.00
318;DHT22;146;53.448;10.228;2024-01-27T08:05:09;4.50;1.00
318;DHT22;146;53.448;10.228;2024-01-27T08:07:56;4.50;1.00
318;DHT22;146;53.448;10.228;2024-01-27T08:10:44;4.40;1.00
318;DHT22;146;53.448;10.228;2024-01-27T08:13:31;4.40;1.00
318;DHT22;146;53.448;10.228;2024-01-27T08:16:21;4.30;1.00
318;DHT22;146;53.448;10.228;2024-01-27T08:19:08;4.20;1.00
318;DHT22;146;53.448;10.228;2024-01-27T08:22:00;4.20;1.00
318;DHT22;146;53.448;10.228;2024-01-27T08:24:50;4.30;1.00
318;DHT22;146;53.448;10.228;2024-01-27T08:27:40;4.20;1.00
318;DHT22;146;53.448;10.228;2024-01-27T08:30:27;4.30;1.00
318;DHT22;146;53.448;10.228;2024-01-27T08:33:17;4.30;1.00
318;DHT22;146;53.448;10.228;2024-01-27T08:36:08;4.20;1.00
318;DHT22;146;53.448;10.228;2024-01-27T08:39:03;4.20;1.00
318;DHT22;146;53.448;10.228;2024-01-27T08:41:53;4.20;1.00
318;DHT22;146;53.448;10.228;2024-01-27T08:44:40;4.30;1.00
318;DHT22;146;53.448;10.228;2024-01-27T08:47:27;4.30;1.00
318;DHT22;146;53.448;10.228;2024-01-27T08:50:21;4.40;1.00
318;DHT22;146;53.448;10.228;2024-01-27T08:53:08;4.40;1.00
318;DHT22;146;53.448;10.228;2024-01-27T08:56:00;4.40;1.00
318;DHT22;146;53.448;10.228;2024-01-27T08:58:51;4.50;1.00
318;DHT22;146;53.448;10.228;2024-01-27T09:01:38;4.50;1.00
318;DHT22;146;53.448;10.228;2024-01-27T09:04:25;4.50;1.00
318;DHT22;146;53.448;10.228;2024-01-27T09:07:18;4.60;1.00
318;DHT22;146;53.448;10.228;2024-01-27T09:10:06;4.60;1.00
318;DHT22;146;53.448;10.228;2024-01-27T09:12:55;4.70;1.00
318;DHT22;146;53.448;10.228;2024-01-27T09:15:48;4.70;1.00
318;DHT22;146;53.448;10.228;2024-01-27T09:18:35;4.80;1.00
318;DHT22;146;53.448;10.228;2024-01-27T09:21:25;4.80;1.00
318;DHT22;146;53.448;10.228;2024-01-27T09:24:17;4.90;1.00
318;DHT22;146;53.448;10.228;2024-01-27T09:27:07;4.90;1.00
318;DHT22;146;53.448;10.228;2024-01-27T09:29:58;5.00;1.00
318;DHT22;146;53.448;10.228;2024-01-27T09:32:51;5.10;1.00
318;DHT22;146;53.448;10.228;2024-01-27T09:35:41;5.20;1.00
318;DHT22;146;53.448;10.228;2024-01-27T09:38:28;5.20;1.00
318;DHT22;146;53.448;10.228;2024-01-27T09:41:18;5.20;1.00
318;DHT22;146;53.448;10.228;2024-01-27T09:44:12;5.30;1.00
318;DHT22;146;53.448;10.228;2024-01-27T09:47:01;5.20;1.00
318;DHT22;146;53.448;10.228;2024-01-27T09:49:51;5.40;1.00
318;DHT22;146;53.448;10.228;2024-01-27T09:52:38;5.40;1.00
318;DHT22;146;53.448;10.228;2024-01-27T09:55:28;5.40;1.00
318;DHT22;146;53.448;10.228;2024-01-27T09:58:18;5.50;1.00
318;DHT22;146;53.448;10.228;2024-01-27T10:01:07;5.60;1.00
318;DHT22;146;53.448;10.228;2024-01-27T10:03:59;5.60;1.00
318;DHT22;146;53.448;10.228;2024-01-27T10:06:47;5.70;1.00
318;DHT22;146;53.448;10.228;2024-01-27T10:09:36;5.70;1.00
318;DHT22;146;53.448;10.228;2024-01-27T10:12:31;5.80;1.00
318;DHT22;146;53.448;10.228;2024-01-27T10:15:19;5.90;1.00
318;DHT22;146;53.448;10.228;2024-01-27T10:18:08;5.80;1.00
318;DHT22;146;53.448;10.228;2024-01-27T10:21:00;5.90;1.00
318;DHT22;146;53.448;10.228;2024-01-27T10:23:50;6.00;1.00
318;DHT22;146;53.448;10.228;2024-01-27T10:26:43;6.10;1.00
318;DHT22;146;53.448;10.228;2024-01-27T10:29:30;6.20;1.00
318;DHT22;146;53.448;10.228;2024-01-27T10:32:23;6.20;1.00
318;DHT22;146;53.448;10.228;2024-01-27T10:35:16;6.20;1.00
318;DHT22;146;53.448;10.228;2024-01-27T10:38:11;6.30;1.00
318;DHT22;146;53.448;10.228;2024-01-27T10:40:58;6.40;1.00
318;DHT22;146;53.448;10.228;2024-01-27T10:43:46;6.40;1.00
318;DHT22;146;53.448;10.228;2024-01-27T10:46:40;6.50;1.00
318;DHT22;146;53.448;10.228;2024-01-27T10:49:28;6.50;1.00
318;DHT22;146;53.448;10.228;2024-01-27T10:52:21;6.50;1.00
318;DHT22;146;53.448;10.228;2024-01-27T10:55:13;6.50;1.00
318;DHT22;146;53.448;10.228;2024-01-27T10:58:04;6.50;1.00
318;DHT22;146;53.448;10.228;2024-01-27T11:00:52;6.60;1.00
318;DHT22;146;53.448;10.228;2024-01-27T11:03:43;6.60;1.00
318;DHT22;146;53.448;10.228;2024-01-27T11:06:39;6.70;1.00
318;DHT22;146;53.448;10.228;2024-01-27T11:09:28;6.70;1.00
318;DHT22;146;53.448;10.228;2024-01-27T11:12:19;6.80;1.00
318;DHT22;146;53.448;10.228;2024-01-27T11:15:08;6.80;1.00
318;DHT22;146;53.448;10.228;2024-01-27T11:17:58;6.90;1.00
318;DHT22;146;53.448;10.228;2024-01-27T11:20:48;7.00;1.00
318;DHT22;146;53.448;10.228;2024-01-27T11:23:35;7.00;1.00
318;DHT22;146;53.448;10.228;2024-01-27T11:26:25;7.10;1.00
318;DHT22;146;53.448;10.228;2024-01-27T11:29:26;7.10;1.00
318;DHT22;146;53.448;10.228;2024-01-27T11:32:15;7.10;1.00
318;DHT22;146;53.448;10.228;2024-01-27T11:35:08;7.10;1.00
318;DHT22;146;53.448;10.228;2024-01-27T11:37:55;7.20;1.00
318;DHT22;146;53.448;10.228;2024-01-27T11:40:54;7.20;1.00
318;DHT22;146;53.448;10.228;2024-01-27T11:43:50;7.30;1.00
318;DHT22;146;53.448;10.228;2024-01-27T11:46:41;7.40;1.00
318;DHT22;146;53.448;10.228;2024-01-27T11:49:31;7.40;1.00
318;DHT22;146;53.448;10.228;2024-01-27T11:52:27;7.40;1.00
318;DHT22;146;53.448;10.228;2024-01-27T11:55:14;7.50;1.00
318;DHT22;146;53.448;10.228;2024-01-27T11:58:02;7.60;1.00
318;DHT22;146;53.448;10.228;2024-01-27T12:00:52;7.70;1.00
318;DHT22;146;53.448;10.228;2024-01-27T12:03:41;7.80;1.00
318;DHT22;146;53.448;10.228;2024-01-27T12:06:31;7.80;1.00
318;DHT22;146;53.448;10.228;2024-01-27T12:09:18;7.90;1.00
318;DHT22;146;53.448;10.228;2024-01-27T12:12:06;8.00;1.00
318;DHT22;146;53.448;10.228;2024-01-27T12:14:54;8.10;1.00
318;DHT22;146;53.448;10.228;2024-01-27T12:17:42;8.10;1.00
318;DHT22;146;53.448;10.228;2024-01-27T12:20:37;8.20;1.00
318;DHT22;146;53.448;10.228;2024-01-27T12:23:24;8.10;1.00
318;DHT22;146;53.448;10.228;2024-01-27T12:26:14;8.00;1.00
318;DHT22;146;53.448;10.228;2024-01-27T12:29:01;8.00;1.00
318;DHT22;146;53.448;10.228;2024-01-27T12:31:51;8.00;1.00
318;DHT22;146;53.448;10.228;2024-01-27T12:34:54;8.00;1.00
318;DHT22;146;53.448;10.228;2024-01-27T12:37:43;8.00;1.00
318;DHT22;146;53.448;10.228;2024-01-27T12:40:32;8.10;1.00
318;DHT22;146;53.448;10.228;2024-01-27T12:43:19;8.00;1.00
318;DHT22;146;53.448;10.228;2024-01-27T12:46:06;8.00;1.00
318;DHT22;146;53.448;10.228;2024-01-27T12:48:59;8.10;1.00
318;DHT22;146;53.448;10.228;2024-01-27T12:51:49;8.00;1.00
318;DHT22;146;53.448;10.228;2024-01-27T12:54:37;8.00;1.00
318;DHT22;146;53.448;10.228;2024-01-27T12:57:24;8.10;1.00
318;DHT22;146;53.448;10.228;2024-01-27T13:00:13;8.00;1.00
318;DHT22;146;53.448;10.228;2024-01-27T13:03:04;8.10;1.00
318;DHT22;146;53.448;10.228;2024-01-27T13:06:01;8.00;1.00
318;DHT22;146;53.448;10.228;2024-01-27T13:08:48;8.00;1.00
318;DHT22;146;53.448;10.228;2024-01-27T13:11:38;7.90;1.00
318;DHT22;146;53.448;10.228;2024-01-27T13:14:27;7.90;1.00
318;DHT22;146;53.448;10.228;2024-01-27T13:17:17;8.00;1.00
318;DHT22;146;53.448;10.228;2024-01-27T13:20:06;8.00;1.00
318;DHT22;146;53.448;10.228;2024-01-27T13:22:56;8.00;1.00
318;DHT22;146;53.448;10.228;2024-01-27T13:25:43;8.10;1.00
318;DHT22;146;53.448;10.228;2024-01-27T13:28:37;8.00;1.00
318;DHT22;146;53.448;10.228;2024-01-27T13:31:24;8.00;1.00
318;DHT22;146;53.448;10.228;2024-01-27T13:34:12;8.10;1.00
318;DHT22;146;53.448;10.228;2024-01-27T13:37:10;8.00;1.00
318;DHT22;146;53.448;10.228;2024-01-27T13:39:57;8.10;1.00
318;DHT22;146;53.448;10.228;2024-01-27T13:42:47;8.10;1.00
318;DHT22;146;53.448;10.228;2024-01-27T13:45:36;8.10;1.00
318;DHT22;146;53.448;10.228;2024-01-27T13:48:23;8.00;1.00
318;DHT22;146;53.448;10.228;2024-01-27T13:51:13;8.00;1.00
318;DHT22;146;53.448;10.228;2024-01-27T13:54:00;8.00;1.00
318;DHT22;146;53.448;10.228;2024-01-27T13:56:51;8.00;1.00
318;DHT22;146;53.448;10.228;2024-01-27T13:59:41;8.00;1.00
318;DHT22;146;53.448;10.228;2024-01-27T14:02:38;8.00;1.00
318;DHT22;146;53.448;10.228;2024-01-27T14:05:26;7.90;1.00
318;DHT22;146;53.448;10.228;2024-01-27T14:08:22;7.90;1.00
318;DHT22;146;53.448;10.228;2024-01-27T14:11:11;7.80;1.00
318;DHT22;146;53.448;10.228;2024-01-27T14:14:02;7.90;1.00
318;DHT22;146;53.448;10.228;2024-01-27T14:16:50;7.90;1.00
318;DHT22;146;53.448;10.228;2024-01-27T14:19:47;7.80;1.00
318;DHT22;146;53.448;10.228;2024-01-27T14:22:38;7.90;1.00
318;DHT22;146;53.448;10.228;2024-01-27T14:25:28;7.80;1.00
318;DHT22;146;53.448;10.228;2024-01-27T14:28:15;7.90;1.00
318;DHT22;146;53.448;10.228;2024-01-27T14:31:03;7.80;1.00
318;DHT22;146;53.448;10.228;2024-01-27T14:33:51;7.80;1.00
318;DHT22;146;53.448;10.228;2024-01-27T14:36:40;7.70;1.00
318;DHT22;146;53.448;10.228;2024-01-27T14:39:27;7.60;1.00
318;DHT22;146;53.448;10.228;2024-01-27T14:42:20;7.60;1.00
318;DHT22;146;53.448;10.228;2024-01-27T14:45:12;7.60;1.00
318;DHT22;146;53.448;10.228;2024-01-27T14:48:00;7.50;1.00
318;DHT22;146;53.448;10.228;2024-01-27T14:50:50;7.40;1.00
318;DHT22;146;53.448;10.228;2024-01-27T14:53:51;7.50;1.00
318;DHT22;146;53.448;10.228;2024-01-27T14:56:42;7.50;1.00
318;DHT22;146;53.448;10.228;2024-01-27T14:59:32;7.50;1.00
318;DHT22;146;53.448;10.228;2024-01-27T15:02:22;7.50;1.00
318;DHT22;146;53.448;10.228;2024-01-27T15:05:09;7.40;1.00
318;DHT22;146;53.448;10.228;2024-01-27T15:07:59;7.30;1.00
318;DHT22;146;53.448;10.228;2024-01-27T15:10:50;7.30;1.00
318;DHT22;146;53.448;10.228;2024-01-27T15:13:37;7.30;1.00
318;DHT22;146;53.448;10.228;2024-01-27T15:16:32;7.40;1.00
318;DHT22;146;53.448;10.228;2024-01-27T15:19:23;7.30;1.00
318;DHT22;146;53.448;10.228;2024-01-27T15:22:10;7.30;1.00
318;DHT22;146;53.448;10.228;2024-01-27T15:24:58;7.30;1.00
318;DHT22;146;53.448;10.228;2024-01-27T15:27:49;7.20;1.00
318;DHT22;146;53.448;10.228;2024-01-27T15:30:36;7.20;1.00
318;DHT22;146;53.448;10.228;2024-01-27T15:33:30;7.20;1.00
318;DHT22;146;53.448;10.228;2024-01-27T15:36:21;7.10;1.00
318;DHT22;146;53.448;10.228;2024-01-27T15:39:08;7.10;1.00
318;DHT22;146;53.448;10.228;2024-01-27T15:41:56;7.00;1.00
318;DHT22;146;53.448;10.228;2024-01-27T15:44:57;6.90;1.00
318;DHT22;146;53.448;10.228;2024-01-27T15:47:47;6.80;1.00
318;DHT22;146;53.448;10.228;2024-01-27T15:50:44;6.80;1.00
318;DHT22;146;53.448;10.228;2024-01-27T15:53:35;6.80;1.00
318;DHT22;146;53.448;10.228;2024-01-27T15:56:23;6.70;1.00
318;DHT22;146;53.448;10.228;2024-01-27T15:59:13;6.70;1.00
318;DHT22;146;53.448;10.228;2024-01-27T16:02:06;6.70;1.00
318;DHT22;146;53.448;10.228;2024-01-27T16:04:59;6.60;1.00
318;DHT22;146;53.448;10.228;2024-01-27T16:07:55;6.60;1.00
318;DHT22;146;53.448;10.228;2024-01-27T16:10:46;6.60;1.00
318;DHT22;146;53.448;10.228;2024-01-27T16:13:40;6.60;1.00
318;DHT22;146;53.448;10.228;2024-01-27T16:16:27;6.60;1.00
318;DHT22;146;53.448;10.228;2024-01-27T16:19:18;6.60;1.00
318;DHT22;146;53.448;10.228;2024-01-27T16:22:21;6.50;1.00
318;DHT22;146;53.448;10.228;2024-01-27T16:25:18;6.40;1.00
318;DHT22;146;53.448;10.228;2024-01-27T16:28:05;6.40;1.00
318;DHT22;146;53.448;10.228;2024-01-27T16:31:00;6.20;1.00
318;DHT22;146;53.448;10.228;2024-01-27T16:33:47;6.20;1.00
318;DHT22;146;53.448;10.228;2024-01-27T16:36:49;6.30;1.00
318;DHT22;146;53.448;10.228;2024-01-27T16:39:36;6.30;1.00
318;DHT22;146;53.448;10.228;2024-01-27T16:42:29;6.30;1.00
318;DHT22;146;53.448;10.228;2024-01-27T16:45:17;6.30;1.00
318;DHT22;146;53.448;10.228;2024-01-27T16:48:05;6.20;1.00
318;DHT22;146;53.448;10.228;2024-01-27T16:50:55;6.10;1.00
318;DHT22;146;53.448;10.228;2024-01-27T16:53:46;6.10;1.00
318;DHT22;146;53.448;10.228;2024-01-27T16:56:33;6.00;1.00
318;DHT22;146;53.448;10.228;2024-01-27T16:59:21;6.00;1.00
318;DHT22;146;53.448;10.228;2024-01-27T17:02:09;6.00;1.00
318;DHT22;146;53.448;10.228;2024-01-27T17:04:56;6.00;1.00
318;DHT22;146;53.448;10.228;2024-01-27T17:07:57;6.00;1.00
318;DHT22;146;53.448;10.228;2024-01-27T17:10:49;5.90;1.00
318;DHT22;146;53.448;10.228;2024-01-27T17:13:36;5.90;1.00
318;DHT22;146;53.448;10.228;2024-01-27T17:16:26;5.80;1.00
318;DHT22;146;53.448;10.228;2024-01-27T17:19:24;5.70;1.00
318;DHT22;146;53.448;10.228;2024-01-27T17:22:16;5.60;1.00
318;DHT22;146;53.448;10.228;2024-01-27T17:25:08;5.70;1.00
318;DHT22;146;53.448;10.228;2024-01-27T17:28:00;5.60;1.00
318;DHT22;146;53.448;10.228;2024-01-27T17:30:50;5.60;1.00
318;DHT22;146;53.448;10.228;2024-01-27T17:33:39;5.60;1.00
318;DHT22;146;53.448;10.228;2024-01-27T17:36:47;5.60;1.00
318;DHT22;146;53.448;10.228;2024-01-27T17:39:42;5.50;1.00
318;DHT22;146;53.448;10.228;2024-01-27T17:42:30;5.50;1.00
318;DHT22;146;53.448;10.228;2024-01-27T17:45:36;5.50;1.00
318;DHT22;146;53.448;10.228;2024-01-27T17:48:24;5.50;1.00
318;DHT22;146;53.448;10.228;2024-01-27T17:51:13;5.50;1.00
318;DHT22;146;53.448;10.228;2024-01-27T17:54:09;5.50;1.00
318;DHT22;146;53.448;10.228;2024-01-27T17:57:04;5.50;1.00
318;DHT22;146;53.448;10.228;2024-01-27T17:59:55;5.40;1.00
318;DHT22;146;53.448;10.228;2024-01-27T18:02:49;5.40;1.00
318;DHT22;146;53.448;10.228;2024-01-27T18:05:42;5.50;1.00
318;DHT22;146;53.448;10.228;2024-01-27T18:08:38;5.40;1.00
318;DHT22;146;53.448;10.228;2024-01-27T18:11:25;5.40;1.00
318;DHT22;146;53.448;10.228;2024-01-27T18:14:15;5.30;1.00
318;DHT22;146;53.448;10.228;2024-01-27T18:17:05;5.30;1.00
318;DHT22;146;53.448;10.228;2024-01-27T18:19:57;5.30;1.00
318;DHT22;146;53.448;10.228;2024-01-27T18:22:47;5.30;1.00
318;DHT22;146;53.448;10.228;2024-01-27T18:25:34;5.30;1.00
318;DHT22;146;53.448;10.228;2024-01-27T18:28:27;5.20;1.00
318;DHT22;146;53.448;10.228;2024-01-27T18:31:17;5.20;1.00
318;DHT22;146;53.448;10.228;2024-01-27T18:34:07;5.20;1.00
318;DHT22;146;53.448;10.228;2024-01-27T18:36:56;5.10;1.00
318;DHT22;146;53.448;10.228;2024-01-27T18:39:43;5.10;1.00
318;DHT22;146;53.448;10.228;2024-01-27T18:42:33;5.00;1.00
318;DHT22;146;53.448;10.228;2024-01-27T18:45:20;5.00;1.00
318;DHT22;146;53.448;10.228;2024-01-27T18:48:10;5.00;1.00
318;DHT22;146;53.448;10.228;2024-01-27T18:51:03;5.00;1.00
318;DHT22;146;53.448;10.228;2024-01-27T18:53:53;5.00;1.00
318;DHT22;146;53.448;10.228;2024-01-27T18:56:40;4.90;1.00
318;DHT22;146;53.448;10.228;2024-01-27T18:59:27;5.00;1.00
318;DHT22;146;53.448;10.228;2024-01-27T19:02:14;4.90;1.00
318;DHT22;146;53.448;10.228;2024-01-27T19:05:01;5.00;1.00
318;DHT22;146;53.448;10.228;2024-01-27T19:07:56;5.00;1.00
318;DHT22;146;53.448;10.228;2024-01-27T19:10:58;5.00;1.00
318;DHT22;146;53.448;10.228;2024-01-27T19:13:46;5.00;1.00
318;DHT22;146;53.448;10.228;2024-01-27T19:16:33;5.00;1.00
318;DHT22;146;53.448;10.228;2024-01-27T19:19:20;5.00;1.00
318;DHT22;146;53.448;10.228;2024-01-27T19:22:08;5.00;1.00
318;DHT22;146;53.448;10.228;2024-01-27T19:24:55;5.00;1.00
318;DHT22;146;53.448;10.228;2024-01-27T19:27:43;5.10;1.00
318;DHT22;146;53.448;10.228;2024-01-27T19:30:30;5.00;1.00